Time;durP1;ratioP1;P1;durP2;ratioP2;P2;SDS_P1;SDS_P2;PMS_P1;PMS_P2;Temp;Humidity;BMP_temperature;BMP_pressure;BME280_temperature;BME280_humidity;BME280_pressure;Samples;Min_cycle;Max_cycle;Signal;HPM_P1;HPM_P2
2021/09/30 00:01:59;;;;;;;7.62;4.60;;;;;;;4.18;98.45;93974.11;1751552;80;21037;-89
2021/09/30 00:04:25;;;;;;;11.70;5.25;;;;;;;4.16;98.40;93968.27;1751646;79;21524;-89
2021/09/30 00:06:52;;;;;;;8.18;4.62;;;;;;;4.16;98.39;93968.84;1786266;78;21088;-89
2021/09/30 00:09:18;;;;;;;9.78;5.05;;;;;;;4.17;98.29;93970.40;1780315;79;21037;-89
2021/09/30 00:11:48;;;;;;;8.18;4.75;;;;;;;4.18;98.48;93964.69;1752536;80;20959;-89
2021/09/30 00:17:06;;;;;;;8.63;4.20;;;;;;;4.23;97.94;93962.31;1750350;79;21022;-89
2021/09/30 00:33:07;;;;;;;8.37;5.03;;;;;;;4.36;96.86;93959.78;1776281;78;21084;-90
2021/09/30 00:46:26;;;;;;;8.13;4.95;;;;;;;4.10;95.90;93952.94;1801612;78;21034;-89
2021/09/30 00:48:53;;;;;;;10.23;5.72;;;;;;;4.06;95.60;93951.24;1735138;81;21037;-89
2021/09/30 00:51:31;;;;;;;10.72;7.08;;;;;;;4.00;95.60;93948.59;1820455;78;20987;-89
2021/09/30 01:45:31;;;;;;;14.35;7.12;;;;;;;3.71;100.00;93962.52;1777614;79;21371;-89
2021/09/30 02:18:42;;;;;;;5.95;4.60;;;;;;;3.37;99.66;93959.75;1760603;79;21024;-90
2021/09/30 02:39:52;;;;;;;;;;;;;;;3.35;100.00;93976.22;1794634;79;21731;-89
2021/09/30 02:58:34;;;;;;;6.45;5.03;;;;;;;3.20;100.00;93968.02;1754264;79;20198;-90
2021/09/30 03:01:11;;;;;;;5.97;4.58;;;;;;;3.22;100.00;93969.26;1770807;78;21208;-90
2021/09/30 03:03:39;;;;;;;9.85;5.97;;;;;;;3.20;100.00;93971.52;1773041;79;21548;-89
2021/09/30 03:06:07;;;;;;;8.73;5.25;;;;;;;3.16;100.00;93980.02;1744299;81;21044;-89
2021/09/30 03:08:41;;;;;;;5.90;4.30;;;;;;;3.16;100.00;93982.14;1773882;79;21048;-90
2021/09/30 03:11:04;;;;;;;5.47;4.40;;;;;;;3.14;100.00;93984.36;1752161;79;21035;-91
2021/09/30 03:13:32;;;;;;;6.78;5.35;;;;;;;3.14;100.00;93978.21;1725877;81;21123;-90
2021/09/30 03:16:07;;;;;;;5.10;4.42;;;;;;;3.13;100.00;93981.46;1721303;81;21031;-90
2021/09/30 03:18:48;;;;;;;5.80;4.83;;;;;;;3.12;100.00;93981.24;1764545;79;20970;-89
2021/09/30 03:23:32;;;;;;;6.83;4.60;;;;;;;3.06;100.00;93983.12;1793958;78;21580;-90
2021/09/30 03:25:55;;;;;;;4.75;4.22;;;;;;;3.07;100.00;93994.09;1752718;79;21785;-89
2021/09/30 03:28:23;;;;;;;7.97;4.58;;;;;;;3.08;100.00;93988.94;1767818;80;21068;-87
2021/09/30 03:30:52;;;;;;;6.65;5.03;;;;;;;3.09;100.00;93979.22;1772616;79;21554;-90
2021/09/30 03:33:18;;;;;;;7.95;5.67;;;;;;;3.10;100.00;93992.09;1772508;80;21511;-89
2021/09/30 03:35:47;;;;;;;6.50;5.25;;;;;;;3.12;100.00;93983.12;1790433;79;21009;-88
2021/09/30 03:38:20;;;;;;;6.72;5.30;;;;;;;3.14;100.00;93983.02;1774249;79;21098;-89
2021/09/30 03:40:46;;;;;;;7.97;4.75;;;;;;;3.18;100.00;93979.11;1763848;79;21007;-88
2021/09/30 03:43:14;;;;;;;6.67;5.05;;;;;;;3.18;100.00;93979.11;1780845;78;20935;-91
2021/09/30 03:45:45;;;;;;;5.97;4.72;;;;;;;3.15;100.00;93973.83;1775872;80;20994;-90
2021/09/30 03:48:15;;;;;;;7.25;4.67;;;;;;;3.12;100.00;93978.56;1775007;79;21499;-89
2021/09/30 03:53:48;;;;;;;5.08;4.10;;;;;;;3.08;99.85;93978.19;1782117;79;21043;-89
2021/09/30 03:56:19;;;;;;;;;;;;;;;;;;;;;
2021/09/30 04:01:20;;;;;;;7.83;4.42;;;;;;;2.69;99.49;93973.64;1765661;77;21036;-89
2021/09/30 04:03:47;;;;;;;11.95;4.47;;;;;;;2.67;100.00;93967.80;1791362;78;21114;-89
2021/09/30 04:06:17;;;;;;;11.20;4.53;;;;;;;2.70;100.00;93967.70;1784623;79;21044;-89
2021/09/30 04:08:47;;;;;;;7.17;4.60;;;;;;;2.74;100.00;93972.08;1764612;79;21039;-89
2021/09/30 04:11:16;;;;;;;6.95;5.05;;;;;;;2.82;100.00;93978.47;1764307;79;21039;-90
2021/09/30 04:13:43;;;;;;;6.55;4.33;;;;;;;2.90;100.00;93980.31;1784661;78;21030;-89
2021/09/30 04:16:09;;;;;;;6.67;4.20;;;;;;;2.97;100.00;93983.23;1784508;78;21094;-88
2021/09/30 04:21:05;;;;;;;10.13;5.42;;;;;;;3.03;100.00;93980.55;1722231;82;21113;-90
2021/09/30 04:23:38;;;;;;;6.92;5.15;;;;;;;3.08;100.00;93983.56;1786205;78;21010;-88
2021/09/30 04:26:05;;;;;;;6.87;5.15;;;;;;;3.13;100.00;93988.74;1784975;79;21053;-89
2021/09/30 04:28:32;;;;;;;8.83;4.87;;;;;;;3.24;100.00;94001.19;1769423;79;21080;-90
2021/09/30 04:30:59;;;;;;;7.37;5.12;;;;;;;3.25;100.00;93996.03;1735558;80;21080;-90
2021/09/30 04:33:28;;;;;;;5.67;4.42;;;;;;;3.25;100.00;93996.03;1756079;79;21027;-91
2021/09/30 04:35:55;;;;;;;6.28;5.25;;;;;;;3.34;100.00;93999.39;1711113;82;21012;-91
2021/09/30 04:38:23;;;;;;;6.70;5.03;;;;;;;3.39;100.00;93994.59;1761329;79;22174;-89
2021/09/30 04:40:49;;;;;;;7.55;6.20;;;;;;;3.39;100.00;93994.59;1751150;79;21091;-90
2021/09/30 04:43:16;;;;;;;12.18;6.58;;;;;;;3.49;100.00;94001.98;1766863;78;21058;-89
2021/09/30 04:45:43;;;;;;;9.78;5.47;;;;;;;3.49;100.00;94001.98;1759685;81;21637;-89
2021/09/30 04:48:13;;;;;;;9.10;4.80;;;;;;;3.50;100.00;94010.26;1787118;78;21084;-89
2021/09/30 04:50:39;;;;;;;6.03;4.83;;;;;;;3.50;100.00;93998.97;1787011;78;21023;-89
2021/09/30 04:53:06;;;;;;;7.07;5.57;;;;;;;3.49;100.00;94009.48;1793762;77;21077;-91
2021/09/30 04:55:37;;;;;;;7.55;5.28;;;;;;;3.52;100.00;94004.00;1756754;78;21019;-89
2021/09/30 04:58:03;;;;;;;7.17;5.55;;;;;;;3.52;100.00;94004.00;1769031;79;21061;-89
2021/09/30 05:00:31;;;;;;;6.10;5.50;;;;;;;3.50;100.00;94008.38;1747524;79;21092;-90
2021/09/30 05:03:05;;;;;;;6.57;5.03;;;;;;;3.48;100.00;94007.14;1759470;79;21535;-88
2021/09/30 05:05:31;;;;;;;6.20;4.65;;;;;;;3.48;100.00;94003.89;1776288;79;21835;-88
2021/09/30 05:07:58;;;;;;;4.87;4.15;;;;;;;3.52;100.00;94002.66;1761119;79;21051;-89
2021/09/30 05:10:32;;;;;;;6.45;4.92;;;;;;;3.70;100.00;94005.91;1736971;79;21072;-89
2021/09/30 05:12:55;;;;;;;6.62;5.10;;;;;;;3.82;100.00;94003.98;1757126;79;21764;-89
2021/09/30 05:15:21;;;;;;;9.55;5.03;;;;;;;4.05;100.00;94002.94;1737336;81;21113;-89
2021/09/30 05:17:50;;;;;;;8.28;4.87;;;;;;;4.31;100.00;94003.12;1748823;80;21573;-89
2021/09/30 05:20:18;;;;;;;7.78;4.90;;;;;;;4.57;100.00;94010.78;1757163;79;20990;-89
2021/09/30 05:22:47;;;;;;;9.93;5.03;;;;;;;4.83;100.00;94007.65;1775599;79;21058;-88
2021/09/30 05:25:13;;;;;;;6.62;4.70;;;;;;;5.10;100.00;94004.70;1773290;79;21106;-88
2021/09/30 05:27:40;;;;;;;4.67;4.12;;;;;;;5.45;100.00;94008.06;1811946;77;21056;-88
2021/09/30 05:30:08;;;;;;;7.97;4.42;;;;;;;5.84;98.69;94011.72;1711684;79;21827;-88
2021/09/30 05:32:34;;;;;;;6.55;4.70;;;;;;;6.03;93.83;94008.32;1746119;80;21020;-88
2021/09/30 05:35:05;;;;;;;5.55;4.53;;;;;;;6.03;93.90;94010.45;1752251;80;21078;-88
2021/09/30 05:37:35;;;;;;;17.30;5.33;;;;;;;6.15;94.19;94003.37;1754949;80;38582;-88
2021/09/30 05:40:02;;;;;;;6.10;4.58;;;;;;;6.43;94.90;94009.94;1767440;80;21039;-88
2021/09/30 05:42:30;;;;;;;133.25;12.63;;;;;;;6.74;93.80;94009.05;1758412;80;21027;-87
2021/09/30 05:45:07;;;;;;;42.45;8.90;;;;;;;7.06;92.57;94002.31;1751701;80;21065;-88
2021/09/30 05:47:28;;;;;;;27.75;18.85;;;;;;;7.38;91.25;94004.83;1779767;78;21068;-88
2021/09/30 05:49:55;;;;;;;12.35;7.42;;;;;;;7.63;89.97;94014.70;1772962;79;21022;-90
2021/09/30 05:56:43;;;;;;;10.23;6.28;;;;;;;8.04;87.51;94007.63;1870984;75;28551;-89
2021/09/30 05:59:10;;;;;;;8.85;6.25;;;;;;;8.00;86.47;94008.14;1821158;77;21085;-88
2021/09/30 06:05:47;;;;;;;10.15;5.92;;;;;;;7.78;86.36;94017.88;1825014;77;21154;-89
2021/09/30 06:14:34;;;;;;;10.13;7.17;;;;;;;7.00;88.56;94019.99;1789830;79;21131;-89
2021/09/30 06:17:03;;;;;;;14.53;7.83;;;;;;;6.89;89.48;94016.88;1818226;77;20982;-89
2021/09/30 06:19:33;;;;;;;8.40;6.65;;;;;;;6.87;90.45;94017.21;1789001;77;21845;-89
2021/09/30 06:22:05;;;;;;;9.88;7.17;;;;;;;6.89;91.47;94013.59;1787232;77;21512;-89
2021/09/30 06:24:31;;;;;;;9.10;6.75;;;;;;;6.97;93.18;94013.16;1821732;77;21152;-89
2021/09/30 06:27:01;;;;;;;13.00;6.70;;;;;;;7.14;93.87;94017.33;1816522;77;21085;-90
2021/09/30 06:29:28;;;;;;;11.28;6.03;;;;;;;7.36;94.02;94016.57;1785898;78;21049;-89
2021/09/30 06:31:57;;;;;;;12.35;7.42;;;;;;;7.56;93.81;94013.27;1814211;77;21010;-90
2021/09/30 06:34:38;;;;;;;9.38;6.40;;;;;;;7.75;93.66;94011.84;1820074;77;21037;-87
2021/09/30 06:37:11;;;;;;;12.23;7.95;;;;;;;8.00;93.40;94010.85;1808331;77;21179;-90
2021/09/30 06:39:38;;;;;;;10.70;7.45;;;;;;;8.19;91.72;94012.68;1765264;77;21654;-89
2021/09/30 06:42:07;;;;;;;10.50;6.95;;;;;;;8.31;90.83;94013.61;1824021;77;21412;-89
2021/09/30 06:44:38;;;;;;;11.03;8.18;;;;;;;8.34;89.72;94020.44;1817734;77;21089;-91
2021/09/30 06:47:24;;;;;;;9.53;7.10;;;;;;;8.36;89.38;94018.73;1809892;77;21221;-90
2021/09/30 06:49:51;;;;;;;8.40;6.33;;;;;;;8.35;89.58;94018.50;1825247;77;20967;-89
2021/09/30 06:52:38;;;;;;;11.00;6.87;;;;;;;8.34;88.98;94021.02;1819881;77;20959;-89
2021/09/30 06:55:07;;;;;;;7.40;6.40;;;;;;;8.36;89.32;94023.58;1818617;77;21108;-89
2021/09/30 06:57:50;;;;;;;9.38;6.58;;;;;;;8.40;89.05;94016.30;1751537;77;21061;-89
2021/09/30 07:00:21;;;;;;;8.23;5.47;;;;;;;8.45;88.92;94024.11;1775027;77;21069;-89
2021/09/30 07:03:08;;;;;;;9.25;6.00;;;;;;;8.56;89.28;94022.12;1730745;81;21536;-89
2021/09/30 07:05:47;;;;;;;9.25;5.75;;;;;;;8.69;88.83;94025.61;1777761;78;21583;-90
2021/09/30 07:08:15;;;;;;;6.12;5.37;;;;;;;8.78;88.10;94013.11;1779741;78;21100;-89
2021/09/30 07:10:42;;;;;;;6.75;5.58;;;;;;;8.87;87.98;94017.66;1821945;76;21106;-90
2021/09/30 07:13:09;;;;;;;7.78;5.62;;;;;;;8.94;87.37;94023.18;1820843;78;21031;-92
2021/09/30 07:15:37;;;;;;;13.62;6.55;;;;;;;9.00;86.80;94017.64;1812075;77;21046;-90
2021/09/30 07:18:13;;;;;;;6.60;5.75;;;;;;;9.03;85.82;94018.03;1809078;78;21091;-89
2021/09/30 07:20:40;;;;;;;7.05;5.92;;;;;;;9.00;85.29;94020.94;1821511;77;21065;-90
2021/09/30 07:23:07;;;;;;;8.15;6.20;;;;;;;8.97;85.91;94022.45;1824866;77;21041;-90
2021/09/30 07:25:33;;;;;;;8.38;6.10;;;;;;;8.96;85.48;94019.53;1825491;77;21073;-89
2021/09/30 07:28:00;;;;;;;7.22;6.35;;;;;;;8.93;85.68;94022.98;1822426;77;21084;-89
2021/09/30 07:30:26;;;;;;;7.85;5.55;;;;;;;8.91;85.97;94016.36;1826308;77;21078;-88
2021/09/30 07:32:53;;;;;;;7.78;6.10;;;;;;;8.88;86.18;94019.25;1825086;77;21121;-90
2021/09/30 07:35:19;;;;;;;8.18;5.65;;;;;;;8.86;85.98;94009.33;1825638;77;21744;-91
2021/09/30 07:37:46;;;;;;;12.45;5.90;;;;;;;8.84;86.64;94010.84;1823366;77;21033;-91
2021/09/30 07:40:15;;;;;;;7.97;5.33;;;;;;;8.89;87.22;94011.89;1823691;77;21057;-90
2021/09/30 07:42:41;;;;;;;7.58;5.33;;;;;;;8.96;86.89;94006.55;1824166;77;21821;-91
2021/09/30 07:45:08;;;;;;;6.83;5.65;;;;;;;9.06;86.79;94006.45;1818232;77;21033;-90
2021/09/30 07:47:35;;;;;;;7.05;5.95;;;;;;;9.19;86.96;94011.84;1824352;77;21132;-90
2021/09/30 07:50:03;;;;;;;7.85;6.12;;;;;;;9.36;86.84;94008.52;1821378;77;21053;-91
2021/09/30 07:52:30;;;;;;;6.87;5.72;;;;;;;9.59;85.43;94002.94;1822550;77;21061;-89
2021/09/30 07:54:57;;;;;;;7.85;5.22;;;;;;;9.75;84.76;94004.05;1824494;77;22251;-91
2021/09/30 07:57:23;;;;;;;6.95;5.65;;;;;;;9.89;84.81;94002.81;1824554;77;21401;-92
2021/09/30 07:59:51;;;;;;;6.67;5.78;;;;;;;10.01;83.65;93999.59;1823713;77;21104;-90
2021/09/30 08:02:17;;;;;;;9.05;5.90;;;;;;;10.10;83.44;94004.11;1818352;77;21400;-90
2021/09/30 08:04:44;;;;;;;6.40;5.30;;;;;;;10.19;83.19;93995.04;1824679;77;21421;-89
2021/09/30 08:07:12;;;;;;;7.28;5.75;;;;;;;10.28;82.29;93994.76;1818779;77;21062;-89
2021/09/30 08:09:40;;;;;;;6.62;5.65;;;;;;;10.30;81.89;93989.70;1818900;77;21085;-92
2021/09/30 08:12:09;;;;;;;7.33;6.50;;;;;;;10.31;82.13;93992.06;1823159;77;21653;-92
2021/09/30 08:14:35;;;;;;;7.42;5.33;;;;;;;10.34;82.75;93988.59;1820743;77;21056;-90
2021/09/30 08:17:03;;;;;;;6.62;6.00;;;;;;;10.38;81.93;93985.31;1821993;77;21482;-90
2021/09/30 08:19:31;;;;;;;8.53;6.12;;;;;;;10.42;82.24;93988.05;1820888;77;21033;-91
2021/09/30 08:21:59;;;;;;;7.92;6.22;;;;;;;10.46;81.33;93984.77;1823380;77;21578;-92
2021/09/30 08:24:26;;;;;;;9.35;7.08;;;;;;;10.47;81.74;93989.05;1833154;77;21105;-91
2021/09/30 08:26:52;;;;;;;10.08;7.55;;;;;;;10.50;82.15;93986.93;1821641;77;21081;-92
2021/09/30 08:29:19;;;;;;;9.93;7.50;;;;;;;10.55;81.97;93984.42;1779553;79;21062;-90
2021/09/30 08:31:45;;;;;;;13.48;8.35;;;;;;;10.62;81.78;93981.74;1799458;77;21090;-92
2021/09/30 08:34:12;;;;;;;9.93;7.53;;;;;;;10.71;81.71;93986.23;1821742;76;21604;-91
2021/09/30 08:36:39;;;;;;;11.35;8.75;;;;;;;10.82;82.53;93980.27;1784989;78;21020;-91
2021/09/30 08:39:06;;;;;;;9.33;6.75;;;;;;;11.03;83.45;93982.30;1798150;78;21640;-90
2021/09/30 08:41:35;;;;;;;11.25;7.00;;;;;;;11.23;81.34;93986.05;1753193;78;21255;-90
2021/09/30 08:44:04;;;;;;;7.90;6.47;;;;;;;11.34;80.51;93985.48;1765828;80;21785;-90
2021/09/30 08:46:32;;;;;;;9.33;6.87;;;;;;;11.45;81.11;93984.16;1766749;80;21078;-90
2021/09/30 08:49:00;;;;;;;6.53;5.83;;;;;;;11.62;81.29;93976.57;1744164;81;21866;-90
2021/09/30 08:51:26;;;;;;;10.38;6.85;;;;;;;11.77;79.48;93977.36;1747693;80;21570;-89
2021/09/30 08:53:53;;;;;;;13.03;7.10;;;;;;;11.87;79.70;93976.03;1814950;77;21500;-89
2021/09/30 08:56:19;;;;;;;6.95;6.12;;;;;;;12.04;80.46;93972.34;1833235;77;21848;-90
2021/09/30 08:58:46;;;;;;;8.43;5.70;;;;;;;12.24;78.84;93971.34;1805986;77;21056;-90
2021/09/30 09:01:13;;;;;;;9.40;5.72;;;;;;;12.37;77.37;93976.01;1757532;80;21097;-90
2021/09/30 09:03:47;;;;;;;9.38;5.03;;;;;;;12.50;76.26;93974.22;1762803;79;21026;-90
2021/09/30 09:06:32;;;;;;;5.17;4.37;;;;;;;12.61;75.78;93974.38;1768879;80;20909;-90
2021/09/30 09:09:25;;;;;;;7.28;5.33;;;;;;;12.74;75.04;93972.58;1765508;79;21725;-89
2021/09/30 09:11:55;;;;;;;7.47;5.10;;;;;;;12.87;74.01;93970.98;1763007;80;21057;-89
2021/09/30 09:14:26;;;;;;;14.35;4.95;;;;;;;12.98;74.31;93965.49;1761294;80;21074;-90
2021/09/30 09:17:05;;;;;;;7.97;5.10;;;;;;;13.06;74.34;93963.69;1767008;79;21125;-90
2021/09/30 09:19:42;;;;;;;5.25;4.75;;;;;;;13.18;74.05;93963.82;1763533;79;21168;-89
2021/09/30 09:24:57;;;;;;;7.83;5.20;;;;;;;13.40;73.37;93965.88;1819900;77;21054;-88
2021/09/30 09:27:23;;;;;;;6.30;5.70;;;;;;;13.53;73.01;93960.12;1819073;77;21125;-90
2021/09/30 09:29:49;;;;;;;5.72;5.20;;;;;;;13.70;72.86;93957.69;1780185;77;21058;-89
2021/09/30 09:32:16;;;;;;;7.92;6.03;;;;;;;13.84;71.67;93959.73;1783622;77;21328;-89
2021/09/30 09:34:44;;;;;;;9.58;5.90;;;;;;;13.98;70.76;93953.34;1817860;77;21041;-89
2021/09/30 09:39:44;;;;;;;14.28;5.78;;;;;;;14.19;70.29;93951.03;1738419;80;21003;-89
2021/09/30 09:42:17;;;;;;;8.28;5.90;;;;;;;14.25;70.16;93953.49;1784433;77;21596;-88
2021/09/30 09:45:02;;;;;;;8.03;5.60;;;;;;;14.35;70.86;93947.74;1805480;76;21442;-90
2021/09/30 09:47:32;;;;;;;7.28;5.45;;;;;;;14.48;70.51;93946.63;1834387;76;21123;-87
2021/09/30 09:50:16;;;;;;;6.08;5.30;;;;;;;14.53;69.41;93945.63;1825149;77;21518;-88
2021/09/30 09:52:55;;;;;;;6.72;5.03;;;;;;;14.58;69.54;93942.44;1834720;77;21104;-89
2021/09/30 09:55:37;;;;;;;9.23;5.15;;;;;;;14.63;68.86;93942.61;1819835;77;21641;-88
2021/09/30 09:58:08;;;;;;;6.03;5.30;;;;;;;14.65;68.77;93942.19;1829178;75;21429;-89
2021/09/30 10:01:00;;;;;;;8.13;5.78;;;;;;;14.69;68.50;93947.03;1800207;77;21073;-88
2021/09/30 10:03:30;;;;;;;9.85;8.18;;;;;;;14.74;68.37;93941.09;1769075;78;21041;-89
2021/09/30 10:05:58;;;;;;;10.18;6.40;;;;;;;14.81;68.14;93941.02;1764822;80;21526;-88
2021/09/30 10:08:25;;;;;;;8.98;6.65;;;;;;;14.85;67.13;93937.64;1763979;80;21096;-89
2021/09/30 10:10:55;;;;;;;7.45;5.55;;;;;;;14.90;67.33;93935.84;1764904;80;21109;-89
2021/09/30 10:15:55;;;;;;;7.10;5.10;;;;;;;15.00;66.44;93935.51;1784883;79;21086;-88
2021/09/30 10:18:26;;;;;;;7.20;5.62;;;;;;;15.05;66.01;93937.81;1814078;77;21067;-87
2021/09/30 10:20:56;;;;;;;6.83;5.05;;;;;;;15.10;65.39;93934.61;1827429;77;21032;-87
2021/09/30 10:23:25;;;;;;;6.20;5.08;;;;;;;15.16;64.92;93937.67;1825997;77;21509;-87
2021/09/30 10:25:54;;;;;;;6.37;5.05;;;;;;;15.21;63.88;93929.77;1824488;77;21187;-88
2021/09/30 10:28:20;;;;;;;6.62;4.80;;;;;;;15.27;64.00;93929.49;1833611;76;21092;-88
2021/09/30 10:30:49;;;;;;;6.00;4.83;;;;;;;15.35;64.22;93929.40;1819076;77;21586;-88
2021/09/30 10:33:23;;;;;;;5.92;5.17;;;;;;;15.40;64.06;93926.95;1835206;77;20974;-89
2021/09/30 10:35:52;;;;;;;6.70;5.37;;;;;;;15.44;64.09;93930.42;1774752;78;21001;-89
2021/09/30 10:38:25;;;;;;;9.60;4.85;;;;;;;15.52;64.72;93921.50;1825143;77;21841;-89
2021/09/30 10:41:07;;;;;;;6.72;4.92;;;;;;;15.61;63.42;93924.51;1816091;77;21138;-88
2021/09/30 10:43:41;;;;;;;6.45;5.17;;;;;;;15.67;63.91;93920.72;1808884;77;21042;-89
2021/09/30 10:46:07;;;;;;;8.90;5.75;;;;;;;15.69;64.19;93922.47;1772461;79;21019;-89
2021/09/30 10:48:38;;;;;;;6.47;5.87;;;;;;;15.70;64.85;93926.75;1819386;77;21061;-89
2021/09/30 10:51:12;;;;;;;8.03;5.35;;;;;;;15.75;66.53;93919.41;1751970;79;21854;-88
2021/09/30 10:53:51;;;;;;;6.28;5.35;;;;;;;15.82;66.08;93918.53;1768477;79;21069;-88
2021/09/30 10:56:38;;;;;;;9.78;5.00;;;;;;;15.85;66.31;93913.59;1807133;77;21085;-90
2021/09/30 10:59:01;;;;;;;9.25;5.40;;;;;;;15.92;66.91;93915.62;1752541;80;21135;-89
2021/09/30 11:01:28;;;;;;;8.43;5.50;;;;;;;16.03;65.45;93914.84;1747355;80;21656;-89
2021/09/30 11:03:59;;;;;;;6.40;5.53;;;;;;;16.07;65.24;93911.28;1776373;79;21082;-89
2021/09/30 11:06:27;;;;;;;5.25;4.75;;;;;;;16.06;65.09;93909.70;1808506;77;21037;-87
2021/09/30 11:09:20;;;;;;;7.55;5.05;;;;;;;16.05;65.40;93910.30;1804575;76;21140;-89
2021/09/30 11:11:48;;;;;;;14.30;6.00;;;;;;;16.13;67.39;93910.36;1786513;77;22138;-87
2021/09/30 11:14:21;;;;;;;11.20;5.47;;;;;;;16.31;67.22;93910.05;1831851;77;21283;-86
2021/09/30 11:16:49;;;;;;;6.95;5.15;;;;;;;16.47;66.09;93903.30;1801903;78;21107;-87
2021/09/30 11:19:34;;;;;;;6.40;5.65;;;;;;;16.56;65.15;93910.97;1841148;76;21069;-88
2021/09/30 11:22:05;;;;;;;5.72;5.22;;;;;;;16.57;64.64;93902.91;1836959;77;21007;-87
2021/09/30 11:24:43;;;;;;;6.65;5.65;;;;;;;16.53;64.86;93905.55;1762315;78;21562;-88
2021/09/30 11:27:12;;;;;;;7.20;5.20;;;;;;;16.49;64.96;93901.50;1766816;79;21117;-89
2021/09/30 11:29:40;;;;;;;6.30;5.67;;;;;;;16.48;64.48;93902.09;1758942;80;21809;-88
2021/09/30 11:32:18;;;;;;;6.33;5.15;;;;;;;16.48;65.25;93898.58;1762334;80;21050;-88
2021/09/30 11:34:50;;;;;;;6.95;6.10;;;;;;;16.40;65.84;93900.69;1758633;80;21085;-87
2021/09/30 11:37:27;;;;;;;8.48;5.80;;;;;;;16.32;66.11;93892.98;1759172;80;21194;-86
2021/09/30 11:39:56;;;;;;;8.43;6.05;;;;;;;16.23;66.07;93903.14;1744394;79;21129;-86
2021/09/30 11:42:26;;;;;;;7.97;6.05;;;;;;;16.12;66.21;93896.47;1755342;80;21122;-86
2021/09/30 11:45:07;;;;;;;11.57;7.25;;;;;;;16.08;67.08;93897.13;1741963;79;21699;-87
2021/09/30 11:47:33;;;;;;;8.40;5.28;;;;;;;16.11;68.45;93896.90;1794073;78;21382;-87
2021/09/30 11:50:01;;;;;;;;;;;;;;;;;;;;;
2021/09/30 11:52:28;;;;;;;6.05;5.10;;;;;;;16.24;64.25;93890.97;1780839;79;21037;-87
2021/09/30 11:54:54;;;;;;;8.48;6.85;;;;;;;16.32;63.64;93897.88;1759224;79;21899;-88
2021/09/30 11:57:26;;;;;;;9.18;7.30;;;;;;;16.33;63.33;93889.84;1751997;80;21114;-85
2021/09/30 12:00:11;;;;;;;7.50;6.03;;;;;;;16.31;63.43;93889.47;1758702;80;21105;-87
2021/09/30 12:02:55;;;;;;;8.60;7.33;;;;;;;16.31;63.23;93896.92;1818025;77;21865;-88
2021/09/30 12:05:24;;;;;;;8.83;6.15;;;;;;;16.29;63.76;93893.84;1791499;77;21111;-87
2021/09/30 12:07:52;;;;;;;10.43;6.75;;;;;;;16.28;64.20;93898.53;1778690;79;21639;-86
2021/09/30 12:10:18;;;;;;;9.25;7.20;;;;;;;16.29;64.30;93895.22;1779577;79;21041;-88
2021/09/30 12:12:46;;;;;;;8.63;6.17;;;;;;;16.30;64.11;93896.76;1783769;79;21045;-87
2021/09/30 12:15:13;;;;;;;10.13;6.37;;;;;;;16.32;64.02;93901.98;1781201;79;21074;-88
2021/09/30 12:17:42;;;;;;;23.52;6.90;;;;;;;16.32;62.87;93906.70;1750045;80;21042;-86
2021/09/30 12:20:13;;;;;;;7.10;5.80;;;;;;;16.26;62.76;93905.83;1723288;81;21814;-87
2021/09/30 12:22:47;;;;;;;8.10;6.00;;;;;;;16.21;62.64;93904.95;1756525;80;21584;-87
2021/09/30 12:25:19;;;;;;;7.80;6.20;;;;;;;16.15;62.10;93905.84;1731473;80;21101;-87
2021/09/30 12:27:49;;;;;;;8.30;6.20;;;;;;;16.03;62.61;93901.73;1746141;80;21064;-87
2021/09/30 12:30:20;;;;;;;11.25;6.37;;;;;;;15.90;63.25;93902.91;1751523;80;21065;-87
2021/09/30 12:32:51;;;;;;;11.70;6.12;;;;;;;15.82;64.94;93904.22;1763542;80;21181;-86
2021/09/30 12:35:26;;;;;;;7.80;6.47;;;;;;;15.72;64.38;93899.11;1759053;80;20956;-86
2021/09/30 12:38:01;;;;;;;9.80;7.37;;;;;;;15.62;64.93;93901.38;1765977;80;21074;-86
2021/09/30 12:40:37;;;;;;;8.88;6.85;;;;;;;15.55;65.88;93897.38;1733664;80;21627;-87
2021/09/30 12:43:11;;;;;;;8.45;6.58;;;;;;;15.49;66.15;93899.02;1712799;79;21049;-87
2021/09/30 12:45:41;;;;;;;6.03;5.35;;;;;;;15.44;66.52;93901.64;1746637;80;21801;-88
2021/09/30 12:48:13;;;;;;;12.60;6.62;;;;;;;15.40;66.49;93898.78;1765055;79;21819;-87
2021/09/30 12:50:47;;;;;;;9.63;6.60;;;;;;;15.36;66.74;93909.80;1722912;81;21098;-86
2021/09/30 12:53:17;;;;;;;8.50;5.87;;;;;;;15.32;66.10;93904.19;1734906;81;21691;-86
2021/09/30 12:55:43;;;;;;;12.15;6.58;;;;;;;15.27;66.98;93904.06;1751867;80;22147;-88
2021/09/30 12:58:40;;;;;;;10.95;5.95;;;;;;;15.23;67.12;93908.80;1736205;79;21108;-88
2021/09/30 13:01:33;;;;;;;13.70;6.95;;;;;;;15.17;67.83;93900.27;1774040;79;21058;-86
2021/09/30 13:04:24;;;;;;;7.80;6.25;;;;;;;15.12;68.20;93904.85;1745488;79;21081;-87
2021/09/30 13:07:00;;;;;;;9.43;6.62;;;;;;;15.07;68.16;93902.55;1756512;80;21498;-87
2021/09/30 13:09:42;;;;;;;9.05;7.03;;;;;;;15.03;68.73;93899.86;1756034;80;21100;-88
2021/09/30 13:12:18;;;;;;;15.23;7.33;;;;;;;15.01;69.00;93899.52;1752858;80;21776;-88
2021/09/30 13:14:56;;;;;;;9.28;7.35;;;;;;;14.98;69.09;93900.33;1728939;81;21101;-88
2021/09/30 13:17:25;;;;;;;9.48;6.90;;;;;;;14.97;70.14;93899.36;1728894;82;21127;-87
2021/09/30 13:20:02;;;;;;;10.43;7.08;;;;;;;14.94;70.13;93902.34;1759726;79;21123;-87
2021/09/30 13:22:41;;;;;;;9.60;7.10;;;;;;;14.94;70.43;93902.34;1767582;77;21081;-87
2021/09/30 13:25:15;;;;;;;9.80;6.33;;;;;;;14.91;70.04;93905.13;1792992;78;21167;-88
2021/09/30 13:27:50;;;;;;;80.47;11.30;;;;;;;14.85;70.49;93902.65;1806468;77;26407;-89
2021/09/30 13:30:23;;;;;;;12.37;7.33;;;;;;;14.75;70.36;93905.13;1760484;80;21120;-87
2021/09/30 13:32:51;;;;;;;15.50;7.85;;;;;;;14.66;70.53;93903.45;1742905;80;21103;-87
2021/09/30 13:35:23;;;;;;;10.95;7.03;;;;;;;14.61;70.99;93904.52;1770382;79;21590;-87
2021/09/30 13:37:48;;;;;;;16.48;8.20;;;;;;;14.60;71.29;93902.97;1741598;81;21651;-87
2021/09/30 13:40:14;;;;;;;11.00;7.17;;;;;;;14.56;70.95;93909.25;1740404;80;21100;-88
2021/09/30 13:42:41;;;;;;;12.68;7.90;;;;;;;14.53;70.97;93905.95;1764957;78;21079;-87
2021/09/30 13:45:11;;;;;;;14.18;8.15;;;;;;;14.49;71.06;93906.59;1810768;77;21105;-87
2021/09/30 13:47:39;;;;;;;15.93;7.72;;;;;;;14.46;71.34;93903.87;1754467;80;21026;-87
2021/09/30 13:50:10;;;;;;;21.05;6.92;;;;;;;14.42;71.76;93903.13;1713853;81;21162;-88
2021/09/30 13:52:37;;;;;;;16.02;7.95;;;;;;;14.39;72.12;93906.67;1783252;78;21065;-87
2021/09/30 13:55:04;;;;;;;19.87;7.78;;;;;;;14.33;72.50;93905.77;1792344;78;21014;-88
2021/09/30 13:57:34;;;;;;;13.13;7.70;;;;;;;14.32;72.19;93904.78;1758091;78;21571;-87
2021/09/30 14:00:04;;;;;;;11.93;7.65;;;;;;;14.28;72.10;93902.68;1714861;80;21486;-87
2021/09/30 14:02:31;;;;;;;14.23;8.63;;;;;;;14.22;72.48;93907.83;1771150;79;21978;-87
2021/09/30 14:04:59;;;;;;;15.55;10.60;;;;;;;14.15;72.85;93902.42;1713359;80;21129;-88
2021/09/30 14:07:26;;;;;;;14.10;9.05;;;;;;;14.09;73.08;93914.98;1786010;78;21630;-88
2021/09/30 14:09:53;;;;;;;19.90;10.90;;;;;;;14.07;73.39;93915.39;1815704;77;21110;-87
2021/09/30 14:12:20;;;;;;;14.53;8.40;;;;;;;14.05;73.58;93915.01;1820447;77;21049;-88
2021/09/30 14:14:48;;;;;;;14.03;8.13;;;;;;;14.00;73.76;93909.98;1813026;77;21117;-87
2021/09/30 14:17:16;;;;;;;24.72;7.97;;;;;;;13.97;73.86;93910.80;1816143;77;21131;-87
2021/09/30 14:19:44;;;;;;;18.10;8.65;;;;;;;13.96;73.72;93915.31;1823795;77;21094;-87
2021/09/30 14:22:12;;;;;;;11.90;7.58;;;;;;;13.92;73.97;93911.83;1824909;77;21096;-86
2021/09/30 14:24:40;;;;;;;11.55;7.12;;;;;;;13.89;73.67;93922.20;1832366;77;21041;-86
2021/09/30 14:27:07;;;;;;;10.68;7.08;;;;;;;13.82;73.50;93916.97;1831760;77;21163;-87
2021/09/30 14:29:34;;;;;;;11.75;7.65;;;;;;;13.72;73.60;93917.05;1785597;79;21053;-87
2021/09/30 14:32:00;;;;;;;12.25;7.35;;;;;;;13.66;73.82;93923.55;1809136;78;21065;-86
2021/09/30 14:34:27;;;;;;;15.32;7.62;;;;;;;13.61;74.20;93910.30;1750741;78;21066;-87
2021/09/30 14:36:54;;;;;;;9.38;6.95;;;;;;;13.57;74.55;93923.22;1737463;80;21151;-89
2021/09/30 14:39:20;;;;;;;13.30;7.50;;;;;;;13.52;74.51;93918.19;1814421;77;21093;-88
2021/09/30 14:41:50;;;;;;;16.30;8.15;;;;;;;13.47;74.71;93913.94;1780353;78;21091;-86
2021/09/30 14:44:15;;;;;;;11.10;7.45;;;;;;;13.43;75.03;93923.34;1776137;78;21092;-88
2021/09/30 14:46:41;;;;;;;11.75;7.65;;;;;;;13.39;74.96;93923.92;1807905;76;21037;-87
2021/09/30 14:49:08;;;;;;;12.82;8.58;;;;;;;13.31;74.59;93924.56;1768998;76;21066;-86